sensor_id;sensor_type;location;lat;lon;timestamp;temperature;humidity
12622;DHT22;6376;48.182;-1.644;2023-02-24T00:01:38;11.30;80.80
12622;DHT22;6376;48.182;-1.644;2023-02-24T00:04:13;11.30;80.80
12622;DHT22;6376;48.182;-1.644;2023-02-24T00:06:40;11.30;80.80
12622;DHT22;6376;48.182;-1.644;2023-02-24T00:09:13;11.30;80.70
12622;DHT22;6376;48.182;-1.644;2023-02-24T00:11:45;11.30;80.70
12622;DHT22;6376;48.182;-1.644;2023-02-24T00:14:13;11.30;80.70
12622;DHT22;6376;48.182;-1.644;2023-02-24T00:16:44;11.30;80.70
12622;DHT22;6376;48.182;-1.644;2023-02-24T00:19:12;11.30;80.70
12622;DHT22;6376;48.182;-1.644;2023-02-24T00:21:39;11.30;80.70
12622;DHT22;6376;48.182;-1.644;2023-02-24T00:24:05;11.30;80.70
12622;DHT22;6376;48.182;-1.644;2023-02-24T00:26:31;11.30;80.70
12622;DHT22;6376;48.182;-1.644;2023-02-24T00:28:57;11.30;80.70
12622;DHT22;6376;48.182;-1.644;2023-02-24T00:31:25;11.30;80.70
12622;DHT22;6376;48.182;-1.644;2023-02-24T00:33:55;11.30;81.40
12622;DHT22;6376;48.182;-1.644;2023-02-24T00:36:22;11.30;80.70
12622;DHT22;6376;48.182;-1.644;2023-02-24T00:38:55;11.30;80.70
12622;DHT22;6376;48.182;-1.644;2023-02-24T00:41:24;11.30;80.80
12622;DHT22;6376;48.182;-1.644;2023-02-24T00:43:55;11.30;80.80
12622;DHT22;6376;48.182;-1.644;2023-02-24T00:46:23;11.30;80.80
12622;DHT22;6376;48.182;-1.644;2023-02-24T00:48:53;11.30;80.80
12622;DHT22;6376;48.182;-1.644;2023-02-24T00:51:21;11.30;80.80
12622;DHT22;6376;48.182;-1.644;2023-02-24T00:53:54;11.30;80.80
12622;DHT22;6376;48.182;-1.644;2023-02-24T00:56:21;11.30;80.80
12622;DHT22;6376;48.182;-1.644;2023-02-24T00:58:47;11.20;80.80
12622;DHT22;6376;48.182;-1.644;2023-02-24T01:01:17;11.30;80.90
12622;DHT22;6376;48.182;-1.644;2023-02-24T01:03:44;11.30;81.00
12622;DHT22;6376;48.182;-1.644;2023-02-24T01:06:11;11.20;80.80
12622;DHT22;6376;48.182;-1.644;2023-02-24T01:08:41;11.20;80.90
12622;DHT22;6376;48.182;-1.644;2023-02-24T01:11:12;11.20;81.00
12622;DHT22;6376;48.182;-1.644;2023-02-24T01:13:58;11.20;81.00
12622;DHT22;6376;48.182;-1.644;2023-02-24T01:16:24;11.20;81.00
12622;DHT22;6376;48.182;-1.644;2023-02-24T01:18:49;11.20;81.00
12622;DHT22;6376;48.182;-1.644;2023-02-24T01:21:17;11.20;81.00
12622;DHT22;6376;48.182;-1.644;2023-02-24T01:23:47;11.20;81.10
12622;DHT22;6376;48.182;-1.644;2023-02-24T01:26:13;11.20;81.00
12622;DHT22;6376;48.182;-1.644;2023-02-24T01:28:40;11.20;81.00
12622;DHT22;6376;48.182;-1.644;2023-02-24T01:31:06;11.20;81.00
12622;DHT22;6376;48.182;-1.644;2023-02-24T01:33:33;11.20;81.00
12622;DHT22;6376;48.182;-1.644;2023-02-24T01:36:16;11.20;81.00
12622;DHT22;6376;48.182;-1.644;2023-02-24T01:38:42;11.20;81.10
12622;DHT22;6376;48.182;-1.644;2023-02-24T01:41:11;11.20;81.00
12622;DHT22;6376;48.182;-1.644;2023-02-24T01:43:55;11.20;81.10
12622;DHT22;6376;48.182;-1.644;2023-02-24T01:46:31;11.20;81.90
12622;DHT22;6376;48.182;-1.644;2023-02-24T01:49:02;11.20;81.10
12622;DHT22;6376;48.182;-1.644;2023-02-24T01:51:35;11.20;81.10
12622;DHT22;6376;48.182;-1.644;2023-02-24T01:54:02;11.20;81.10
12622;DHT22;6376;48.182;-1.644;2023-02-24T01:56:30;11.20;81.10
12622;DHT22;6376;48.182;-1.644;2023-02-24T01:58:58;11.20;81.10
12622;DHT22;6376;48.182;-1.644;2023-02-24T02:01:25;11.20;81.10
12622;DHT22;6376;48.182;-1.644;2023-02-24T02:03:55;11.20;81.10
12622;DHT22;6376;48.182;-1.644;2023-02-24T02:06:25;11.20;81.10
12622;DHT22;6376;48.182;-1.644;2023-02-24T02:08:52;11.20;81.10
12622;DHT22;6376;48.182;-1.644;2023-02-24T02:11:18;11.20;81.20
12622;DHT22;6376;48.182;-1.644;2023-02-24T02:13:45;11.10;81.10
12622;DHT22;6376;48.182;-1.644;2023-02-24T02:24:58;11.10;81.30
12622;DHT22;6376;48.182;-1.644;2023-02-24T02:36:04;11.10;81.40
12622;DHT22;6376;48.182;-1.644;2023-02-24T02:39:04;11.10;81.40
12622;DHT22;6376;48.182;-1.644;2023-02-24T02:42:07;11.10;81.40
12622;DHT22;6376;48.182;-1.644;2023-02-24T02:45:09;11.10;81.40
12622;DHT22;6376;48.182;-1.644;2023-02-24T02:47:48;11.10;81.40
12622;DHT22;6376;48.182;-1.644;2023-02-24T02:50:37;11.10;81.40
12622;DHT22;6376;48.182;-1.644;2023-02-24T02:53:15;11.10;81.50
12622;DHT22;6376;48.182;-1.644;2023-02-24T02:55:57;11.10;81.50
12622;DHT22;6376;48.182;-1.644;2023-02-24T02:58:28;11.10;81.60
12622;DHT22;6376;48.182;-1.644;2023-02-24T03:00:57;11.10;81.60
12622;DHT22;6376;48.182;-1.644;2023-02-24T03:03:42;11.10;81.60
12622;DHT22;6376;48.182;-1.644;2023-02-24T03:09:04;11.10;81.50
12622;DHT22;6376;48.182;-1.644;2023-02-24T03:11:38;11.10;81.60
12622;DHT22;6376;48.182;-1.644;2023-02-24T03:14:09;11.10;81.40
12622;DHT22;6376;48.182;-1.644;2023-02-24T03:16:38;11.10;81.50
12622;DHT22;6376;48.182;-1.644;2023-02-24T03:19:07;11.10;81.50
12622;DHT22;6376;48.182;-1.644;2023-02-24T03:21:43;11.10;81.60
12622;DHT22;6376;48.182;-1.644;2023-02-24T03:24:10;11.10;81.60
12622;DHT22;6376;48.182;-1.644;2023-02-24T03:31:46;11.10;81.70
12622;DHT22;6376;48.182;-1.644;2023-02-24T03:34:35;11.10;81.60
12622;DHT22;6376;48.182;-1.644;2023-02-24T03:37:04;11.10;81.70
12622;DHT22;6376;48.182;-1.644;2023-02-24T03:39:30;11.10;81.70
12622;DHT22;6376;48.182;-1.644;2023-02-24T03:44:22;11.10;81.70
12622;DHT22;6376;48.182;-1.644;2023-02-24T03:46:51;11.10;81.70
12622;DHT22;6376;48.182;-1.644;2023-02-24T03:49:17;11.10;81.70
12622;DHT22;6376;48.182;-1.644;2023-02-24T03:52:14;11.10;81.70
12622;DHT22;6376;48.182;-1.644;2023-02-24T03:54:51;11.00;81.70
12622;DHT22;6376;48.182;-1.644;2023-02-24T03:57:39;11.00;81.70
12622;DHT22;6376;48.182;-1.644;2023-02-24T04:00:33;11.10;81.80
12622;DHT22;6376;48.182;-1.644;2023-02-24T04:03:27;11.10;81.70
12622;DHT22;6376;48.182;-1.644;2023-02-24T04:06:05;11.10;81.80
12622;DHT22;6376;48.182;-1.644;2023-02-24T04:11:19;11.10;81.70
12622;DHT22;6376;48.182;-1.644;2023-02-24T04:14:14;11.10;81.70
12622;DHT22;6376;48.182;-1.644;2023-02-24T04:16:49;11.00;81.70
12622;DHT22;6376;48.182;-1.644;2023-02-24T04:19:20;11.00;81.70
12622;DHT22;6376;48.182;-1.644;2023-02-24T04:21:49;11.00;81.70
12622;DHT22;6376;48.182;-1.644;2023-02-24T04:24:17;11.10;81.70
12622;DHT22;6376;48.182;-1.644;2023-02-24T04:26:46;11.00;81.70
12622;DHT22;6376;48.182;-1.644;2023-02-24T04:29:20;11.00;81.70
12622;DHT22;6376;48.182;-1.644;2023-02-24T04:31:50;11.00;81.80
12622;DHT22;6376;48.182;-1.644;2023-02-24T04:34:17;11.00;81.80
12622;DHT22;6376;48.182;-1.644;2023-02-24T04:36:48;11.00;81.90
12622;DHT22;6376;48.182;-1.644;2023-02-24T04:39:19;11.00;81.90
12622;DHT22;6376;48.182;-1.644;2023-02-24T04:41:45;11.00;82.60
12622;DHT22;6376;48.182;-1.644;2023-02-24T04:44:18;11.00;81.90
12622;DHT22;6376;48.182;-1.644;2023-02-24T04:46:45;11.00;81.90
12622;DHT22;6376;48.182;-1.644;2023-02-24T04:49:12;11.00;81.90
12622;DHT22;6376;48.182;-1.644;2023-02-24T04:51:38;11.00;81.90
12622;DHT22;6376;48.182;-1.644;2023-02-24T04:54:08;11.00;81.80
12622;DHT22;6376;48.182;-1.644;2023-02-24T04:56:35;11.00;81.80
12622;DHT22;6376;48.182;-1.644;2023-02-24T04:59:02;11.00;81.80
12622;DHT22;6376;48.182;-1.644;2023-02-24T05:01:28;11.00;81.90
12622;DHT22;6376;48.182;-1.644;2023-02-24T05:03:53;11.00;81.90
12622;DHT22;6376;48.182;-1.644;2023-02-24T05:06:19;11.00;81.90
12622;DHT22;6376;48.182;-1.644;2023-02-24T05:08:45;11.00;81.90
12622;DHT22;6376;48.182;-1.644;2023-02-24T05:11:14;11.00;81.90
12622;DHT22;6376;48.182;-1.644;2023-02-24T05:13:41;11.00;81.90
12622;DHT22;6376;48.182;-1.644;2023-02-24T05:16:10;11.00;81.90
12622;DHT22;6376;48.182;-1.644;2023-02-24T05:18:37;11.00;81.90
12622;DHT22;6376;48.182;-1.644;2023-02-24T05:21:11;11.00;81.90
12622;DHT22;6376;48.182;-1.644;2023-02-24T05:24:16;11.00;81.90
12622;DHT22;6376;48.182;-1.644;2023-02-24T05:26:41;11.00;81.80
12622;DHT22;6376;48.182;-1.644;2023-02-24T05:29:08;11.00;81.90
12622;DHT22;6376;48.182;-1.644;2023-02-24T05:31:35;11.00;81.90
12622;DHT22;6376;48.182;-1.644;2023-02-24T05:34:04;11.00;81.90
12622;DHT22;6376;48.182;-1.644;2023-02-24T05:36:33;11.00;81.90
12622;DHT22;6376;48.182;-1.644;2023-02-24T05:39:00;11.00;81.90
12622;DHT22;6376;48.182;-1.644;2023-02-24T05:41:38;11.00;81.90
12622;DHT22;6376;48.182;-1.644;2023-02-24T05:44:06;11.00;81.90
12622;DHT22;6376;48.182;-1.644;2023-02-24T05:46:36;11.00;81.90
12622;DHT22;6376;48.182;-1.644;2023-02-24T05:49:05;10.90;81.80
12622;DHT22;6376;48.182;-1.644;2023-02-24T05:51:36;11.00;81.90
12622;DHT22;6376;48.182;-1.644;2023-02-24T05:54:09;10.90;81.80
12622;DHT22;6376;48.182;-1.644;2023-02-24T05:56:37;11.00;81.90
12622;DHT22;6376;48.182;-1.644;2023-02-24T05:59:06;10.90;81.80
12622;DHT22;6376;48.182;-1.644;2023-02-24T06:01:35;10.90;81.80
12622;DHT22;6376;48.182;-1.644;2023-02-24T06:04:05;10.90;81.90
12622;DHT22;6376;48.182;-1.644;2023-02-24T06:06:36;10.90;81.80
12622;DHT22;6376;48.182;-1.644;2023-02-24T06:09:04;10.90;81.80
12622;DHT22;6376;48.182;-1.644;2023-02-24T06:11:35;10.90;81.80
12622;DHT22;6376;48.182;-1.644;2023-02-24T06:14:02;10.90;81.80
12622;DHT22;6376;48.182;-1.644;2023-02-24T06:16:32;10.90;81.80
12622;DHT22;6376;48.182;-1.644;2023-02-24T06:18:58;11.00;81.90
12622;DHT22;6376;48.182;-1.644;2023-02-24T06:21:24;10.90;81.90
12622;DHT22;6376;48.182;-1.644;2023-02-24T06:23:57;10.90;81.80
12622;DHT22;6376;48.182;-1.644;2023-02-24T06:26:24;10.90;81.80
12622;DHT22;6376;48.182;-1.644;2023-02-24T06:28:55;10.90;81.80
12622;DHT22;6376;48.182;-1.644;2023-02-24T06:31:21;10.90;81.80
12622;DHT22;6376;48.182;-1.644;2023-02-24T06:33:46;10.90;81.80
12622;DHT22;6376;48.182;-1.644;2023-02-24T06:36:13;10.90;81.80
12622;DHT22;6376;48.182;-1.644;2023-02-24T06:38:39;10.90;81.80
12622;DHT22;6376;48.182;-1.644;2023-02-24T06:41:06;10.90;81.80
12622;DHT22;6376;48.182;-1.644;2023-02-24T06:43:43;10.90;81.80
12622;DHT22;6376;48.182;-1.644;2023-02-24T06:46:11;10.90;81.70
12622;DHT22;6376;48.182;-1.644;2023-02-24T06:48:37;10.90;81.70
12622;DHT22;6376;48.182;-1.644;2023-02-24T06:51:07;10.90;81.80
12622;DHT22;6376;48.182;-1.644;2023-02-24T06:53:35;10.90;81.80
12622;DHT22;6376;48.182;-1.644;2023-02-24T06:56:11;10.90;81.90
12622;DHT22;6376;48.182;-1.644;2023-02-24T06:58:41;10.90;81.90
12622;DHT22;6376;48.182;-1.644;2023-02-24T07:01:12;10.90;81.90
12622;DHT22;6376;48.182;-1.644;2023-02-24T07:03:39;10.90;81.90
12622;DHT22;6376;48.182;-1.644;2023-02-24T07:06:06;10.90;81.90
12622;DHT22;6376;48.182;-1.644;2023-02-24T07:08:45;10.90;81.90
12622;DHT22;6376;48.182;-1.644;2023-02-24T07:11:11;10.80;81.80
12622;DHT22;6376;48.182;-1.644;2023-02-24T07:13:38;10.90;81.90
12622;DHT22;6376;48.182;-1.644;2023-02-24T07:16:05;10.80;81.80
12622;DHT22;6376;48.182;-1.644;2023-02-24T07:18:35;10.80;81.80
12622;DHT22;6376;48.182;-1.644;2023-02-24T07:21:05;10.80;81.80
12622;DHT22;6376;48.182;-1.644;2023-02-24T07:23:37;10.80;81.80
12622;DHT22;6376;48.182;-1.644;2023-02-24T07:26:14;10.80;81.80
12622;DHT22;6376;48.182;-1.644;2023-02-24T07:28:42;10.80;81.80
12622;DHT22;6376;48.182;-1.644;2023-02-24T07:31:11;10.80;81.80
12622;DHT22;6376;48.182;-1.644;2023-02-24T07:33:38;10.80;81.80
12622;DHT22;6376;48.182;-1.644;2023-02-24T07:36:05;10.80;81.70
12622;DHT22;6376;48.182;-1.644;2023-02-24T07:38:35;10.80;81.70
12622;DHT22;6376;48.182;-1.644;2023-02-24T07:41:02;10.80;81.60
12622;DHT22;6376;48.182;-1.644;2023-02-24T07:43:28;10.80;81.60
12622;DHT22;6376;48.182;-1.644;2023-02-24T07:45:55;10.80;81.60
12622;DHT22;6376;48.182;-1.644;2023-02-24T07:48:22;10.80;81.50
12622;DHT22;6376;48.182;-1.644;2023-02-24T07:50:49;10.80;81.60
12622;DHT22;6376;48.182;-1.644;2023-02-24T07:53:15;10.80;81.50
12622;DHT22;6376;48.182;-1.644;2023-02-24T07:55:40;10.80;81.50
12622;DHT22;6376;48.182;-1.644;2023-02-24T07:58:06;10.80;81.60
12622;DHT22;6376;48.182;-1.644;2023-02-24T08:00:32;10.80;81.50
12622;DHT22;6376;48.182;-1.644;2023-02-24T08:03:14;10.80;81.50
12622;DHT22;6376;48.182;-1.644;2023-02-24T08:05:40;10.80;81.40
12622;DHT22;6376;48.182;-1.644;2023-02-24T08:08:08;10.80;81.30
12622;DHT22;6376;48.182;-1.644;2023-02-24T08:10:33;10.80;81.40
12622;DHT22;6376;48.182;-1.644;2023-02-24T08:13:01;10.80;81.30
12622;DHT22;6376;48.182;-1.644;2023-02-24T08:15:28;10.80;81.30
12622;DHT22;6376;48.182;-1.644;2023-02-24T08:17:59;10.80;81.20
12622;DHT22;6376;48.182;-1.644;2023-02-24T08:20:27;10.90;81.30
12622;DHT22;6376;48.182;-1.644;2023-02-24T08:23:13;10.90;81.30
12622;DHT22;6376;48.182;-1.644;2023-02-24T08:25:39;10.90;81.10
12622;DHT22;6376;48.182;-1.644;2023-02-24T08:28:09;11.00;80.80
12622;DHT22;6376;48.182;-1.644;2023-02-24T08:30:42;11.00;80.40
12622;DHT22;6376;48.182;-1.644;2023-02-24T08:33:20;11.30;79.90
12622;DHT22;6376;48.182;-1.644;2023-02-24T08:35:53;11.50;79.20
12622;DHT22;6376;48.182;-1.644;2023-02-24T08:38:27;11.40;79.50
12622;DHT22;6376;48.182;-1.644;2023-02-24T08:41:04;11.30;79.80
12622;DHT22;6376;48.182;-1.644;2023-02-24T08:43:39;11.60;78.80
12622;DHT22;6376;48.182;-1.644;2023-02-24T08:46:14;11.80;77.80
12622;DHT22;6376;48.182;-1.644;2023-02-24T08:48:53;11.90;77.20
12622;DHT22;6376;48.182;-1.644;2023-02-24T08:51:21;12.00;76.90
12622;DHT22;6376;48.182;-1.644;2023-02-24T08:53:55;12.00;76.70
12622;DHT22;6376;48.182;-1.644;2023-02-24T08:56:26;12.10;76.60
12622;DHT22;6376;48.182;-1.644;2023-02-24T08:58:56;12.00;76.60
12622;DHT22;6376;48.182;-1.644;2023-02-24T09:01:28;12.00;76.60
12622;DHT22;6376;48.182;-1.644;2023-02-24T09:04:00;12.00;76.50
12622;DHT22;6376;48.182;-1.644;2023-02-24T09:06:40;12.00;76.40
12622;DHT22;6376;48.182;-1.644;2023-02-24T09:09:09;12.10;76.10
12622;DHT22;6376;48.182;-1.644;2023-02-24T09:11:58;12.20;75.90
12622;DHT22;6376;48.182;-1.644;2023-02-24T09:14:31;12.10;75.90
12622;DHT22;6376;48.182;-1.644;2023-02-24T09:17:06;12.20;75.80
12622;DHT22;6376;48.182;-1.644;2023-02-24T09:19:43;12.10;75.60
12622;DHT22;6376;48.182;-1.644;2023-02-24T09:22:16;12.20;75.50
12622;DHT22;6376;48.182;-1.644;2023-02-24T09:24:55;12.30;75.00
12622;DHT22;6376;48.182;-1.644;2023-02-24T09:27:40;12.20;75.20
12622;DHT22;6376;48.182;-1.644;2023-02-24T09:30:11;12.20;75.30
12622;DHT22;6376;48.182;-1.644;2023-02-24T09:32:56;12.10;75.70
12622;DHT22;6376;48.182;-1.644;2023-02-24T09:35:28;12.00;76.10
12622;DHT22;6376;48.182;-1.644;2023-02-24T09:38:02;12.00;76.50
12622;DHT22;6376;48.182;-1.644;2023-02-24T09:40:32;12.00;76.30
12622;DHT22;6376;48.182;-1.644;2023-02-24T09:43:09;12.00;76.20
12622;DHT22;6376;48.182;-1.644;2023-02-24T09:45:50;12.20;75.60
12622;DHT22;6376;48.182;-1.644;2023-02-24T09:48:34;12.40;74.80
12622;DHT22;6376;48.182;-1.644;2023-02-24T09:51:09;12.50;74.10
12622;DHT22;6376;48.182;-1.644;2023-02-24T09:53:38;12.60;73.60
12622;DHT22;6376;48.182;-1.644;2023-02-24T09:56:30;12.70;73.30
12622;DHT22;6376;48.182;-1.644;2023-02-24T09:59:17;12.80;73.20
12622;DHT22;6376;48.182;-1.644;2023-02-24T10:05:21;12.80;72.80
12622;DHT22;6376;48.182;-1.644;2023-02-24T10:07:52;12.70;72.90
12622;DHT22;6376;48.182;-1.644;2023-02-24T10:10:33;12.60;73.20
12622;DHT22;6376;48.182;-1.644;2023-02-24T10:13:15;12.50;73.90
12622;DHT22;6376;48.182;-1.644;2023-02-24T10:15:55;12.30;74.30
12622;DHT22;6376;48.182;-1.644;2023-02-24T10:18:48;12.30;74.60
12622;DHT22;6376;48.182;-1.644;2023-02-24T10:22:12;12.20;74.70
12622;DHT22;6376;48.182;-1.644;2023-02-24T10:33:34;12.40;74.10
12622;DHT22;6376;48.182;-1.644;2023-02-24T10:36:08;12.50;73.70
12622;DHT22;6376;48.182;-1.644;2023-02-24T10:38:36;12.50;73.50
12622;DHT22;6376;48.182;-1.644;2023-02-24T10:41:02;12.50;73.70
12622;DHT22;6376;48.182;-1.644;2023-02-24T10:43:31;12.40;73.90
12622;DHT22;6376;48.182;-1.644;2023-02-24T10:46:00;12.40;74.20
12622;DHT22;6376;48.182;-1.644;2023-02-24T10:48:48;12.50;73.60
12622;DHT22;6376;48.182;-1.644;2023-02-24T10:51:16;12.80;72.70
12622;DHT22;6376;48.182;-1.644;2023-02-24T10:54:05;13.00;72.00
12622;DHT22;6376;48.182;-1.644;2023-02-24T10:56:46;13.20;71.30
12622;DHT22;6376;48.182;-1.644;2023-02-24T10:59:24;13.30;70.80
12622;DHT22;6376;48.182;-1.644;2023-02-24T11:01:55;13.30;70.70
12622;DHT22;6376;48.182;-1.644;2023-02-24T11:04:36;13.30;70.60
12622;DHT22;6376;48.182;-1.644;2023-02-24T11:07:34;13.40;70.40
12622;DHT22;6376;48.182;-1.644;2023-02-24T11:10:17;13.40;70.00
12622;DHT22;6376;48.182;-1.644;2023-02-24T11:13:04;13.50;69.60
12622;DHT22;6376;48.182;-1.644;2023-02-24T11:15:51;13.60;69.50
12622;DHT22;6376;48.182;-1.644;2023-02-24T11:18:38;13.60;69.40
12622;DHT22;6376;48.182;-1.644;2023-02-24T11:21:11;13.60;69.30
12622;DHT22;6376;48.182;-1.644;2023-02-24T11:23:44;13.70;69.00
12622;DHT22;6376;48.182;-1.644;2023-02-24T11:26:18;13.70;69.00
12622;DHT22;6376;48.182;-1.644;2023-02-24T11:34:24;13.70;69.00
12622;DHT22;6376;48.182;-1.644;2023-02-24T11:39:55;13.80;68.80
12622;DHT22;6376;48.182;-1.644;2023-02-24T11:42:38;13.70;69.00
12622;DHT22;6376;48.182;-1.644;2023-02-24T11:50:48;13.70;69.40
12622;DHT22;6376;48.182;-1.644;2023-02-24T11:53:50;13.60;69.90
12622;DHT22;6376;48.182;-1.644;2023-02-24T11:56:33;13.40;70.30
12622;DHT22;6376;48.182;-1.644;2023-02-24T12:02:14;13.30;70.90
12622;DHT22;6376;48.182;-1.644;2023-02-24T12:09:51;13.10;71.70
12622;DHT22;6376;48.182;-1.644;2023-02-24T12:18:29;13.00;72.10
12622;DHT22;6376;48.182;-1.644;2023-02-24T12:23:44;12.90;72.20
12622;DHT22;6376;48.182;-1.644;2023-02-24T12:26:22;12.90;72.30
12622;DHT22;6376;48.182;-1.644;2023-02-24T12:31:42;12.90;72.60
12622;DHT22;6376;48.182;-1.644;2023-02-24T12:42:33;12.80;72.90
12622;DHT22;6376;48.182;-1.644;2023-02-24T12:48:41;12.80;73.00
12622;DHT22;6376;48.182;-1.644;2023-02-24T12:53:44;12.70;72.70
12622;DHT22;6376;48.182;-1.644;2023-02-24T12:56:14;12.70;72.20
12622;DHT22;6376;48.182;-1.644;2023-02-24T12:58:44;12.60;72.60
12622;DHT22;6376;48.182;-1.644;2023-02-24T13:01:25;12.60;72.90
12622;DHT22;6376;48.182;-1.644;2023-02-24T13:07:33;12.40;73.00
12622;DHT22;6376;48.182;-1.644;2023-02-24T13:15:27;12.30;73.60
12622;DHT22;6376;48.182;-1.644;2023-02-24T13:17:56;12.30;73.60
12622;DHT22;6376;48.182;-1.644;2023-02-24T13:20:33;12.30;73.70
12622;DHT22;6376;48.182;-1.644;2023-02-24T13:23:00;12.30;73.60
12622;DHT22;6376;48.182;-1.644;2023-02-24T13:25:37;12.30;73.80
12622;DHT22;6376;48.182;-1.644;2023-02-24T13:28:17;12.30;73.80
12622;DHT22;6376;48.182;-1.644;2023-02-24T13:31:16;12.30;73.70
12622;DHT22;6376;48.182;-1.644;2023-02-24T13:33:43;12.30;73.70
12622;DHT22;6376;48.182;-1.644;2023-02-24T13:36:19;12.30;73.70
12622;DHT22;6376;48.182;-1.644;2023-02-24T13:38:51;12.30;73.80
12622;DHT22;6376;48.182;-1.644;2023-02-24T13:46:27;12.30;73.70
12622;DHT22;6376;48.182;-1.644;2023-02-24T13:49:12;12.30;73.60
12622;DHT22;6376;48.182;-1.644;2023-02-24T13:54:40;12.30;74.00
12622;DHT22;6376;48.182;-1.644;2023-02-24T14:03:10;12.30;74.10
12622;DHT22;6376;48.182;-1.644;2023-02-24T14:05:39;12.30;74.20
12622;DHT22;6376;48.182;-1.644;2023-02-24T14:08:05;12.30;74.10
12622;DHT22;6376;48.182;-1.644;2023-02-24T14:10:32;12.20;74.20
12622;DHT22;6376;48.182;-1.644;2023-02-24T14:13:31;12.20;74.30
12622;DHT22;6376;48.182;-1.644;2023-02-24T14:16:00;12.20;74.40
12622;DHT22;6376;48.182;-1.644;2023-02-24T14:18:29;12.20;74.30
12622;DHT22;6376;48.182;-1.644;2023-02-24T14:20:56;12.20;74.40
12622;DHT22;6376;48.182;-1.644;2023-02-24T14:25:56;12.20;74.40
12622;DHT22;6376;48.182;-1.644;2023-02-24T14:28:26;12.20;74.40
12622;DHT22;6376;48.182;-1.644;2023-02-24T14:30:55;12.20;74.50
12622;DHT22;6376;48.182;-1.644;2023-02-24T14:33:28;12.20;74.60
12622;DHT22;6376;48.182;-1.644;2023-02-24T14:35:57;12.20;74.60
12622;DHT22;6376;48.182;-1.644;2023-02-24T14:38:34;12.20;74.60
12622;DHT22;6376;48.182;-1.644;2023-02-24T14:41:03;12.00;74.40
12622;DHT22;6376;48.182;-1.644;2023-02-24T14:43:29;12.20;74.60
12622;DHT22;6376;48.182;-1.644;2023-02-24T14:45:55;12.20;74.80
12622;DHT22;6376;48.182;-1.644;2023-02-24T14:48:29;12.20;74.50
12622;DHT22;6376;48.182;-1.644;2023-02-24T14:51:00;12.20;74.30
12622;DHT22;6376;48.182;-1.644;2023-02-24T14:53:27;12.10;74.40
12622;DHT22;6376;48.182;-1.644;2023-02-24T14:55:55;12.20;74.60
12622;DHT22;6376;48.182;-1.644;2023-02-24T14:58:43;12.20;74.50
12622;DHT22;6376;48.182;-1.644;2023-02-24T15:06:50;12.10;74.60
12622;DHT22;6376;48.182;-1.644;2023-02-24T15:09:32;12.10;74.60
12622;DHT22;6376;48.182;-1.644;2023-02-24T15:12:07;12.10;74.70
12622;DHT22;6376;48.182;-1.644;2023-02-24T15:14:34;12.10;74.70
12622;DHT22;6376;48.182;-1.644;2023-02-24T15:17:07;12.10;74.70
12622;DHT22;6376;48.182;-1.644;2023-02-24T15:19:39;12.10;74.60
12622;DHT22;6376;48.182;-1.644;2023-02-24T15:25:24;12.20;74.30
12622;DHT22;6376;48.182;-1.644;2023-02-24T15:30:32;12.20;74.30
12622;DHT22;6376;48.182;-1.644;2023-02-24T15:33:01;12.10;74.30
12622;DHT22;6376;48.182;-1.644;2023-02-24T15:35:27;12.10;74.40
12622;DHT22;6376;48.182;-1.644;2023-02-24T15:37:53;12.10;74.40
12622;DHT22;6376;48.182;-1.644;2023-02-24T15:40:20;12.10;74.40
12622;DHT22;6376;48.182;-1.644;2023-02-24T15:42:51;12.10;74.30
12622;DHT22;6376;48.182;-1.644;2023-02-24T15:45:31;12.10;74.30
12622;DHT22;6376;48.182;-1.644;2023-02-24T15:48:16;12.10;74.30
12622;DHT22;6376;48.182;-1.644;2023-02-24T15:50:43;12.10;74.30
12622;DHT22;6376;48.182;-1.644;2023-02-24T15:53:09;12.10;74.40
12622;DHT22;6376;48.182;-1.644;2023-02-24T15:55:40;12.10;74.40
12622;DHT22;6376;48.182;-1.644;2023-02-24T15:58:15;12.10;74.30
12622;DHT22;6376;48.182;-1.644;2023-02-24T16:00:41;12.10;74.30
12622;DHT22;6376;48.182;-1.644;2023-02-24T16:03:07;12.10;74.30
12622;DHT22;6376;48.182;-1.644;2023-02-24T16:05:33;12.10;74.20
12622;DHT22;6376;48.182;-1.644;2023-02-24T16:07:59;12.10;74.30
12622;DHT22;6376;48.182;-1.644;2023-02-24T16:10:28;12.10;74.30
12622;DHT22;6376;48.182;-1.644;2023-02-24T16:12:58;12.00;74.30
12622;DHT22;6376;48.182;-1.644;2023-02-24T16:15:28;12.00;74.40
12622;DHT22;6376;48.182;-1.644;2023-02-24T16:17:55;12.00;74.40
12622;DHT22;6376;48.182;-1.644;2023-02-24T16:20:27;12.00;74.60
12622;DHT22;6376;48.182;-1.644;2023-02-24T16:23:01;12.00;74.60
12622;DHT22;6376;48.182;-1.644;2023-02-24T16:25:28;12.00;74.60
12622;DHT22;6376;48.182;-1.644;2023-02-24T16:27:55;12.00;74.50
12622;DHT22;6376;48.182;-1.644;2023-02-24T16:30:28;12.00;74.60
12622;DHT22;6376;48.182;-1.644;2023-02-24T16:32:59;12.00;74.70
12622;DHT22;6376;48.182;-1.644;2023-02-24T16:35:26;12.00;74.70
12622;DHT22;6376;48.182;-1.644;2023-02-24T16:37:52;11.90;74.60
12622;DHT22;6376;48.182;-1.644;2023-02-24T16:42:49;12.00;74.50
12622;DHT22;6376;48.182;-1.644;2023-02-24T16:45:14;11.90;74.60
12622;DHT22;6376;48.182;-1.644;2023-02-24T16:47:41;11.90;74.60
12622;DHT22;6376;48.182;-1.644;2023-02-24T16:50:16;11.90;74.70
12622;DHT22;6376;48.182;-1.644;2023-02-24T16:52:42;11.90;74.70
12622;DHT22;6376;48.182;-1.644;2023-02-24T16:55:11;11.90;74.80
12622;DHT22;6376;48.182;-1.644;2023-02-24T16:57:38;11.90;74.90
12622;DHT22;6376;48.182;-1.644;2023-02-24T17:00:04;11.80;74.90
12622;DHT22;6376;48.182;-1.644;2023-02-24T17:02:30;11.80;75.00
12622;DHT22;6376;48.182;-1.644;2023-02-24T17:04:56;11.80;74.90
12622;DHT22;6376;48.182;-1.644;2023-02-24T17:07:21;11.80;74.90
12622;DHT22;6376;48.182;-1.644;2023-02-24T17:09:47;11.90;74.90
12622;DHT22;6376;48.182;-1.644;2023-02-24T17:12:14;11.80;74.80
12622;DHT22;6376;48.182;-1.644;2023-02-24T17:14:41;11.80;74.90
12622;DHT22;6376;48.182;-1.644;2023-02-24T17:17:07;11.80;75.00
12622;DHT22;6376;48.182;-1.644;2023-02-24T17:19:32;11.80;75.00
12622;DHT22;6376;48.182;-1.644;2023-02-24T17:21:58;11.80;75.10
12622;DHT22;6376;48.182;-1.644;2023-02-24T17:24:23;11.80;75.20
12622;DHT22;6376;48.182;-1.644;2023-02-24T17:26:49;11.80;75.20
12622;DHT22;6376;48.182;-1.644;2023-02-24T17:29:15;11.80;75.30
12622;DHT22;6376;48.182;-1.644;2023-02-24T17:31:40;11.70;75.20
12622;DHT22;6376;48.182;-1.644;2023-02-24T17:34:06;11.70;75.20
12622;DHT22;6376;48.182;-1.644;2023-02-24T17:36:32;11.70;75.30
12622;DHT22;6376;48.182;-1.644;2023-02-24T17:38:58;11.70;75.30
12622;DHT22;6376;48.182;-1.644;2023-02-24T17:41:24;11.70;75.30
12622;DHT22;6376;48.182;-1.644;2023-02-24T17:43:53;11.70;75.30
12622;DHT22;6376;48.182;-1.644;2023-02-24T17:46:19;11.70;75.30
12622;DHT22;6376;48.182;-1.644;2023-02-24T17:48:45;11.70;75.30
12622;DHT22;6376;48.182;-1.644;2023-02-24T17:51:15;11.70;75.30
12622;DHT22;6376;48.182;-1.644;2023-02-24T17:53:41;11.70;75.40
12622;DHT22;6376;48.182;-1.644;2023-02-24T17:56:08;11.70;75.30
12622;DHT22;6376;48.182;-1.644;2023-02-24T17:58:34;11.60;75.20
12622;DHT22;6376;48.182;-1.644;2023-02-24T18:01:00;11.60;75.20
12622;DHT22;6376;48.182;-1.644;2023-02-24T18:03:28;11.60;75.20
12622;DHT22;6376;48.182;-1.644;2023-02-24T18:05:58;11.60;75.40
12622;DHT22;6376;48.182;-1.644;2023-02-24T18:08:24;11.60;75.40
12622;DHT22;6376;48.182;-1.644;2023-02-24T18:10:50;11.60;75.50